sensor_id;sensor_type;location;lat;lon;timestamp;pressure;altitude;pressure_sealevel;temperature;humidity
6393;BME280;3229;42.674;23.282;2022-07-09T00:01:00;94558.31;;;24.63;64.57
6393;BME280;3229;42.674;23.282;2022-07-09T00:03:27;94552.28;;;24.62;65.18
6393;BME280;3229;42.674;23.282;2022-07-09T00:05:54;94556.25;;;24.65;64.62
6393;BME280;3229;42.674;23.282;2022-07-09T00:08:21;94555.34;;;24.59;64.77
6393;BME280;3229;42.674;23.282;2022-07-09T00:10:48;94566.72;;;24.65;64.90
6393;BME280;3229;42.674;23.282;2022-07-09T00:13:15;94575.59;;;24.64;64.75
6393;BME280;3229;42.674;23.282;2022-07-09T00:15:43;94565.13;;;24.64;64.75
6393;BME280;3229;42.674;23.282;2022-07-09T00:18:10;94563.78;;;24.61;64.80
6393;BME280;3229;42.674;23.282;2022-07-09T00:20:36;94572.63;;;24.60;64.73
6393;BME280;3229;42.674;23.282;2022-07-09T00:23:03;94560.59;;;24.59;64.81
6393;BME280;3229;42.674;23.282;2022-07-09T00:25:30;94561.81;;;24.57;64.77
6393;BME280;3229;42.674;23.282;2022-07-09T00:27:57;94559.44;;;24.55;64.88
6393;BME280;3229;42.674;23.282;2022-07-09T00:30:24;94558.09;;;24.52;64.93
6393;BME280;3229;42.674;23.282;2022-07-09T00:32:53;94548.09;;;24.49;65.39
6393;BME280;3229;42.674;23.282;2022-07-09T00:35:20;94555.16;;;24.49;65.52
6393;BME280;3229;42.674;23.282;2022-07-09T00:37:47;94554.56;;;24.47;65.59
6393;BME280;3229;42.674;23.282;2022-07-09T00:40:14;94552.97;;;24.46;65.67
6393;BME280;3229;42.674;23.282;2022-07-09T00:42:41;94550.59;;;24.44;65.53
6393;BME280;3229;42.674;23.282;2022-07-09T00:45:08;94543.06;;;24.36;65.74
6393;BME280;3229;42.674;23.282;2022-07-09T00:47:35;94547.41;;;24.42;65.86
6393;BME280;3229;42.674;23.282;2022-07-09T00:50:03;94550.25;;;24.41;65.67
6393;BME280;3229;42.674;23.282;2022-07-09T00:52:31;94551.28;;;24.40;65.79
6393;BME280;3229;42.674;23.282;2022-07-09T00:55:00;94541.81;;;24.39;65.66
6393;BME280;3229;42.674;23.282;2022-07-09T00:57:27;94541.44;;;24.35;65.76
6393;BME280;3229;42.674;23.282;2022-07-09T00:59:55;94525.75;;;24.35;65.81
6393;BME280;3229;42.674;23.282;2022-07-09T01:02:23;94534.22;;;24.37;65.73
6393;BME280;3229;42.674;23.282;2022-07-09T01:04:50;94514.75;;;24.33;66.01
6393;BME280;3229;42.674;23.282;2022-07-09T01:07:18;94530.19;;;24.35;65.83
6393;BME280;3229;42.674;23.282;2022-07-09T01:09:46;94521.56;;;24.34;66.06
6393;BME280;3229;42.674;23.282;2022-07-09T01:12:13;94522.59;;;24.33;66.33
6393;BME280;3229;42.674;23.282;2022-07-09T01:14:40;94531.47;;;24.32;66.23
6393;BME280;3229;42.674;23.282;2022-07-09T01:17:07;94514.63;;;24.28;66.10
6393;BME280;3229;42.674;23.282;2022-07-09T01:19:34;94522.47;;;24.28;66.28
6393;BME280;3229;42.674;23.282;2022-07-09T01:22:03;94519.28;;;24.26;66.24
6393;BME280;3229;42.674;23.282;2022-07-09T01:24:30;94516.47;;;24.27;66.10
6393;BME280;3229;42.674;23.282;2022-07-09T01:26:56;94512.22;;;24.26;66.12
6393;BME280;3229;42.674;23.282;2022-07-09T01:29:23;94515.66;;;24.27;66.37
6393;BME280;3229;42.674;23.282;2022-07-09T01:31:50;94504.88;;;24.23;66.20
6393;BME280;3229;42.674;23.282;2022-07-09T01:34:17;94505.31;;;24.20;66.56
6393;BME280;3229;42.674;23.282;2022-07-09T01:36:44;94509.84;;;24.25;66.45
6393;BME280;3229;42.674;23.282;2022-07-09T01:39:13;94506.44;;;24.24;66.51
6393;BME280;3229;42.674;23.282;2022-07-09T01:41:40;94508.97;;;24.19;66.38
6393;BME280;3229;42.674;23.282;2022-07-09T01:44:07;94506.91;;;24.21;66.60
6393;BME280;3229;42.674;23.282;2022-07-09T01:46:34;94506.34;;;24.19;66.43
6393;BME280;3229;42.674;23.282;2022-07-09T01:49:00;94507.13;;;24.20;66.61
6393;BME280;3229;42.674;23.282;2022-07-09T01:51:27;94494.41;;;24.12;66.48
6393;BME280;3229;42.674;23.282;2022-07-09T01:53:54;94503.94;;;24.18;66.67
6393;BME280;3229;42.674;23.282;2022-07-09T01:56:23;94509.16;;;24.18;66.72
6393;BME280;3229;42.674;23.282;2022-07-09T01:58:49;94502.34;;;24.17;66.67
6393;BME280;3229;42.674;23.282;2022-07-09T02:01:16;94506.78;;;24.16;66.59
6393;BME280;3229;42.674;23.282;2022-07-09T02:03:43;94505.19;;;24.15;66.58
6393;BME280;3229;42.674;23.282;2022-07-09T02:06:10;94501.78;;;24.15;66.68
6393;BME280;3229;42.674;23.282;2022-07-09T02:08:37;94508.84;;;24.14;66.65
6393;BME280;3229;42.674;23.282;2022-07-09T02:11:05;94509.06;;;24.13;67.01
6393;BME280;3229;42.674;23.282;2022-07-09T02:13:33;94514.28;;;24.13;66.69
6393;BME280;3229;42.674;23.282;2022-07-09T02:16:00;94513.72;;;24.11;66.67
6393;BME280;3229;42.674;23.282;2022-07-09T02:18:27;94511.91;;;24.11;66.71
6393;BME280;3229;42.674;23.282;2022-07-09T02:20:54;94507.59;;;24.05;66.83
6393;BME280;3229;42.674;23.282;2022-07-09T02:23:22;94511.31;;;24.09;67.05
6393;BME280;3229;42.674;23.282;2022-07-09T02:25:49;94513.38;;;24.07;66.96
6393;BME280;3229;42.674;23.282;2022-07-09T02:28:16;94515.19;;;24.07;67.17
6393;BME280;3229;42.674;23.282;2022-07-09T02:30:44;94518.59;;;24.07;66.80
6393;BME280;3229;42.674;23.282;2022-07-09T02:33:11;94514.03;;;24.02;66.80
6393;BME280;3229;42.674;23.282;2022-07-09T02:35:38;94518.59;;;24.07;67.00
6393;BME280;3229;42.674;23.282;2022-07-09T02:38:05;94528.25;;;24.07;67.14
6393;BME280;3229;42.674;23.282;2022-07-09T02:40:32;94524.38;;;23.97;66.88
6393;BME280;3229;42.674;23.282;2022-07-09T02:42:59;94525.88;;;24.05;66.98
6393;BME280;3229;42.674;23.282;2022-07-09T02:45:26;94521.88;;;24.02;66.85
6393;BME280;3229;42.674;23.282;2022-07-09T02:47:54;94531.09;;;24.05;66.82
6393;BME280;3229;42.674;23.282;2022-07-09T02:50:21;94532.91;;;24.04;67.05
6393;BME280;3229;42.674;23.282;2022-07-09T02:52:48;94528.50;;;24.05;67.16
6393;BME280;3229;42.674;23.282;2022-07-09T02:55:15;94528.34;;;24.00;66.90
6393;BME280;3229;42.674;23.282;2022-07-09T02:57:41;94532.09;;;24.04;66.82
6393;BME280;3229;42.674;23.282;2022-07-09T03:00:09;94526.31;;;24.02;67.21
6393;BME280;3229;42.674;23.282;2022-07-09T03:02:36;94536.78;;;24.02;67.07
6393;BME280;3229;42.674;23.282;2022-07-09T03:05:05;94542.00;;;24.02;67.01
6393;BME280;3229;42.674;23.282;2022-07-09T03:07:32;94544.59;;;24.02;67.18
6393;BME280;3229;42.674;23.282;2022-07-09T03:09:59;94539.59;;;24.00;67.31
6393;BME280;3229;42.674;23.282;2022-07-09T03:12:25;94541.19;;;24.01;67.32
6393;BME280;3229;42.674;23.282;2022-07-09T03:14:52;94530.28;;;23.93;67.55
6393;BME280;3229;42.674;23.282;2022-07-09T03:17:19;94543.81;;;24.01;67.47
6393;BME280;3229;42.674;23.282;2022-07-09T03:19:46;94540.41;;;24.01;67.76
6393;BME280;3229;42.674;23.282;2022-07-09T03:22:14;94538.78;;;24.00;67.84
6393;BME280;3229;42.674;23.282;2022-07-09T03:24:41;94538.00;;;23.99;67.75
6393;BME280;3229;42.674;23.282;2022-07-09T03:27:08;94540.06;;;23.97;67.82
6393;BME280;3229;42.674;23.282;2022-07-09T03:29:35;94542.44;;;23.99;67.87
6393;BME280;3229;42.674;23.282;2022-07-09T03:32:02;94533.81;;;23.98;67.83
6393;BME280;3229;42.674;23.282;2022-07-09T03:34:29;94533.00;;;23.98;67.84
6393;BME280;3229;42.674;23.282;2022-07-09T03:36:56;94535.63;;;23.98;67.89
6393;BME280;3229;42.674;23.282;2022-07-09T03:39:24;94525.97;;;23.98;67.87
6393;BME280;3229;42.674;23.282;2022-07-09T03:41:51;94539.03;;;23.98;68.16
6393;BME280;3229;42.674;23.282;2022-07-09T03:44:18;94531.19;;;23.98;68.07
6393;BME280;3229;42.674;23.282;2022-07-09T03:46:45;94528.03;;;23.96;68.37
6393;BME280;3229;42.674;23.282;2022-07-09T03:49:11;94539.03;;;23.98;68.05
6393;BME280;3229;42.674;23.282;2022-07-09T03:51:38;94536.41;;;23.98;68.05
6393;BME280;3229;42.674;23.282;2022-07-09T03:54:05;94537.66;;;23.96;68.26
6393;BME280;3229;42.674;23.282;2022-07-09T03:56:33;94535.84;;;23.96;68.15
6393;BME280;3229;42.674;23.282;2022-07-09T03:59:00;94537.66;;;23.96;67.96
6393;BME280;3229;42.674;23.282;2022-07-09T04:01:27;94538.25;;;23.98;68.04
6393;BME280;3229;42.674;23.282;2022-07-09T04:03:54;94536.66;;;23.97;68.05
6393;BME280;3229;42.674;23.282;2022-07-09T04:06:21;94534.25;;;23.95;68.27
6393;BME280;3229;42.674;23.282;2022-07-09T04:08:48;94531.06;;;23.93;67.96
6393;BME280;3229;42.674;23.282;2022-07-09T04:11:15;94541.41;;;24.00;68.23
6393;BME280;3229;42.674;23.282;2022-07-09T04:13:43;94543.03;;;24.01;68.01
6393;BME280;3229;42.674;23.282;2022-07-09T04:16:10;94541.63;;;23.98;68.17
6393;BME280;3229;42.674;23.282;2022-07-09T04:18:36;94556.88;;;24.01;67.84
6393;BME280;3229;42.674;23.282;2022-07-09T04:21:04;94552.22;;;24.03;68.24
6393;BME280;3229;42.674;23.282;2022-07-09T04:23:30;94547.78;;;24.04;67.87
6393;BME280;3229;42.674;23.282;2022-07-09T04:25:57;94555.41;;;24.06;67.96
6393;BME280;3229;42.674;23.282;2022-07-09T04:28:24;94553.78;;;24.04;68.00
6393;BME280;3229;42.674;23.282;2022-07-09T04:30:53;94563.81;;;24.08;67.83
6393;BME280;3229;42.674;23.282;2022-07-09T04:33:20;94567.22;;;24.08;67.88
6393;BME280;3229;42.674;23.282;2022-07-09T04:35:47;94560.41;;;24.07;67.82
6393;BME280;3229;42.674;23.282;2022-07-09T04:38:14;94557.34;;;24.10;67.60
6393;BME280;3229;42.674;23.282;2022-07-09T04:40:40;94557.91;;;24.12;67.63
6393;BME280;3229;42.674;23.282;2022-07-09T04:43:07;94557.91;;;24.12;67.75
6393;BME280;3229;42.674;23.282;2022-07-09T04:45:34;94553.47;;;24.13;67.36
6393;BME280;3229;42.674;23.282;2022-07-09T04:48:03;94557.22;;;24.17;67.34
6393;BME280;3229;42.674;23.282;2022-07-09T04:50:30;94551.78;;;24.18;67.29
6393;BME280;3229;42.674;23.282;2022-07-09T04:52:57;94540.31;;;24.19;67.04
6393;BME280;3229;42.674;23.282;2022-07-09T04:55:24;94554.53;;;24.23;67.05
6393;BME280;3229;42.674;23.282;2022-07-09T04:57:51;94554.28;;;24.25;66.97
6393;BME280;3229;42.674;23.282;2022-07-09T05:00:18;94557.25;;;24.28;66.63
6393;BME280;3229;42.674;23.282;2022-07-09T05:02:45;94556.00;;;24.31;66.79
6393;BME280;3229;42.674;23.282;2022-07-09T05:05:13;94556.34;;;24.35;66.57
6393;BME280;3229;42.674;23.282;2022-07-09T05:07:41;94554.50;;;24.35;66.52
6393;BME280;3229;42.674;23.282;2022-07-09T05:10:08;94542.13;;;24.31;66.55
6393;BME280;3229;42.674;23.282;2022-07-09T05:12:35;94559.69;;;24.42;66.47
6393;BME280;3229;42.674;23.282;2022-07-09T05:15:03;94559.44;;;24.43;66.29
6393;BME280;3229;42.674;23.282;2022-07-09T05:17:33;94570.81;;;24.49;65.98
6393;BME280;3229;42.674;23.282;2022-07-09T05:20:00;94564.81;;;24.48;66.01
6393;BME280;3229;42.674;23.282;2022-07-09T05:22:30;94569.13;;;24.55;65.87
6393;BME280;3229;42.674;23.282;2022-07-09T05:24:57;94570.50;;;24.57;65.96
6393;BME280;3229;42.674;23.282;2022-07-09T05:27:25;94563.34;;;24.52;65.78
6393;BME280;3229;42.674;23.282;2022-07-09T05:29:52;94568.19;;;24.61;65.61
6393;BME280;3229;42.674;23.282;2022-07-09T05:32:19;94570.69;;;24.56;65.58
6393;BME280;3229;42.674;23.282;2022-07-09T05:34:46;94584.47;;;24.63;65.28
6393;BME280;3229;42.674;23.282;2022-07-09T05:37:13;94581.28;;;24.61;65.42
6393;BME280;3229;42.674;23.282;2022-07-09T05:39:42;94575.50;;;24.59;65.49
6393;BME280;3229;42.674;23.282;2022-07-09T05:42:09;94582.66;;;24.63;65.60
6393;BME280;3229;42.674;23.282;2022-07-09T05:44:36;94581.28;;;24.61;65.35
6393;BME280;3229;42.674;23.282;2022-07-09T05:47:03;94584.47;;;24.63;65.38
6393;BME280;3229;42.674;23.282;2022-07-09T05:49:30;94584.47;;;24.63;65.18
6393;BME280;3229;42.674;23.282;2022-07-09T05:51:57;94592.06;;;24.64;65.32
6393;BME280;3229;42.674;23.282;2022-07-09T05:54:24;94592.06;;;24.64;65.36
6393;BME280;3229;42.674;23.282;2022-07-09T05:56:52;94591.53;;;24.62;65.41
6393;BME280;3229;42.674;23.282;2022-07-09T05:59:19;94589.69;;;24.63;65.38
6393;BME280;3229;42.674;23.282;2022-07-09T06:01:46;94577.06;;;24.60;64.90
6393;BME280;3229;42.674;23.282;2022-07-09T06:04:13;94587.78;;;24.70;65.26
6393;BME280;3229;42.674;23.282;2022-07-09T06:06:40;94590.16;;;24.71;65.06
6393;BME280;3229;42.674;23.282;2022-07-09T06:09:07;94589.91;;;24.73;65.07
6393;BME280;3229;42.674;23.282;2022-07-09T06:11:34;94594.13;;;24.74;64.79
6393;BME280;3229;42.674;23.282;2022-07-09T06:14:02;94596.53;;;24.75;64.64
6393;BME280;3229;42.674;23.282;2022-07-09T06:16:29;94596.53;;;24.75;64.71
6393;BME280;3229;42.674;23.282;2022-07-09T06:18:56;94598.34;;;24.75;64.90
6393;BME280;3229;42.674;23.282;2022-07-09T06:21:23;94596.97;;;24.72;64.83
6393;BME280;3229;42.674;23.282;2022-07-09T06:23:50;94582.19;;;24.66;64.56
6393;BME280;3229;42.674;23.282;2022-07-09T06:26:17;94599.13;;;24.75;64.77
6393;BME280;3229;42.674;23.282;2022-07-09T06:28:43;94596.72;;;24.74;64.85
6393;BME280;3229;42.674;23.282;2022-07-09T06:31:13;94589.38;;;24.71;64.54
6393;BME280;3229;42.674;23.282;2022-07-09T06:33:40;94599.59;;;24.72;64.71
6393;BME280;3229;42.674;23.282;2022-07-09T06:36:07;94601.97;;;24.74;64.89
6393;BME280;3229;42.674;23.282;2022-07-09T06:38:34;94598.00;;;24.71;64.67
6393;BME280;3229;42.674;23.282;2022-07-09T06:41:21;94610.94;;;24.78;64.73
6393;BME280;3229;42.674;23.282;2022-07-09T06:43:48;94592.78;;;24.71;64.56
6393;BME280;3229;42.674;23.282;2022-07-09T06:46:16;94610.94;;;24.78;64.72
6393;BME280;3229;42.674;23.282;2022-07-09T06:48:43;94607.78;;;24.76;64.70
6393;BME280;3229;42.674;23.282;2022-07-09T06:51:10;94600.72;;;24.76;64.89
6393;BME280;3229;42.674;23.282;2022-07-09T06:53:37;94607.78;;;24.76;64.76
6393;BME280;3229;42.674;23.282;2022-07-09T06:56:04;94614.84;;;24.75;64.80
6393;BME280;3229;42.674;23.282;2022-07-09T06:58:31;94612.56;;;24.79;64.67
6393;BME280;3229;42.674;23.282;2022-07-09T07:00:58;94609.94;;;24.79;64.58
6393;BME280;3229;42.674;23.282;2022-07-09T07:03:26;94596.41;;;24.70;64.59
6393;BME280;3229;42.674;23.282;2022-07-09T07:05:53;94603.22;;;24.71;64.53
6393;BME280;3229;42.674;23.282;2022-07-09T07:08:20;94613.91;;;24.82;64.32
6393;BME280;3229;42.674;23.282;2022-07-09T07:10:47;94615.28;;;24.84;64.49
6393;BME280;3229;42.674;23.282;2022-07-09T07:13:14;94604.72;;;24.79;64.32
6393;BME280;3229;42.674;23.282;2022-07-09T07:15:41;94613.13;;;24.81;64.09
6393;BME280;3229;42.674;23.282;2022-07-09T07:18:10;94610.50;;;24.81;63.96
6393;BME280;3229;42.674;23.282;2022-07-09T07:20:38;94610.25;;;24.83;63.96
6393;BME280;3229;42.674;23.282;2022-07-09T07:23:05;94610.25;;;24.83;63.81
6393;BME280;3229;42.674;23.282;2022-07-09T07:25:31;94611.28;;;24.82;63.77
6393;BME280;3229;42.674;23.282;2022-07-09T07:27:58;94609.03;;;24.85;63.52
6393;BME280;3229;42.674;23.282;2022-07-09T07:30:26;94610.16;;;24.89;63.67
6393;BME280;3229;42.674;23.282;2022-07-09T07:32:54;94614.38;;;24.90;63.33
6393;BME280;3229;42.674;23.282;2022-07-09T07:35:21;94611.53;;;24.92;63.24
6393;BME280;3229;42.674;23.282;2022-07-09T07:37:51;94617.44;;;24.99;63.58
6393;BME280;3229;42.674;23.282;2022-07-09T07:40:19;94606.44;;;25.09;63.48
6393;BME280;3229;42.674;23.282;2022-07-09T07:42:46;94610.03;;;25.19;63.98
6393;BME280;3229;42.674;23.282;2022-07-09T07:45:13;94599.66;;;25.24;63.65
6393;BME280;3229;42.674;23.282;2022-07-09T07:47:39;94610.22;;;25.41;63.36
6393;BME280;3229;42.674;23.282;2022-07-09T07:50:07;94612.81;;;25.53;63.37
6393;BME280;3229;42.674;23.282;2022-07-09T07:52:36;94615.63;;;25.63;63.38
6393;BME280;3229;42.674;23.282;2022-07-09T07:55:05;94618.91;;;25.70;63.83
6393;BME280;3229;42.674;23.282;2022-07-09T07:57:33;94601.81;;;25.68;63.01
6393;BME280;3229;42.674;23.282;2022-07-09T08:00:03;94602.41;;;25.70;62.13
6393;BME280;3229;42.674;23.282;2022-07-09T08:02:30;94602.63;;;25.68;62.17
6393;BME280;3229;42.674;23.282;2022-07-09T08:04:57;94608.31;;;25.77;62.05
6393;BME280;3229;42.674;23.282;2022-07-09T08:07:24;94610.13;;;25.76;62.04
6393;BME280;3229;42.674;23.282;2022-07-09T08:09:51;94610.94;;;25.77;61.55
6393;BME280;3229;42.674;23.282;2022-07-09T08:12:19;94609.91;;;25.78;61.36
6393;BME280;3229;42.674;23.282;2022-07-09T08:14:46;94603.41;;;25.81;61.79
6393;BME280;3229;42.674;23.282;2022-07-09T08:17:13;94608.59;;;25.92;61.10
6393;BME280;3229;42.674;23.282;2022-07-09T08:19:40;94613.53;;;26.06;61.73
6393;BME280;3229;42.674;23.282;2022-07-09T08:22:07;94602.22;;;26.17;61.56
6393;BME280;3229;42.674;23.282;2022-07-09T08:24:34;94615.31;;;26.34;61.70
6393;BME280;3229;42.674;23.282;2022-07-09T08:27:01;94611.84;;;26.45;61.59
6393;BME280;3229;42.674;23.282;2022-07-09T08:29:29;94604.13;;;26.55;61.31
6393;BME280;3229;42.674;23.282;2022-07-09T08:31:56;94610.03;;;26.62;61.03
6393;BME280;3229;42.674;23.282;2022-07-09T08:34:23;94605.44;;;26.69;60.94
6393;BME280;3229;42.674;23.282;2022-07-09T08:36:50;94598.03;;;26.66;60.88
6393;BME280;3229;42.674;23.282;2022-07-09T08:39:16;94615.81;;;26.81;60.60
6393;BME280;3229;42.674;23.282;2022-07-09T08:41:43;94617.75;;;26.86;60.07
6393;BME280;3229;42.674;23.282;2022-07-09T08:44:10;94614.28;;;26.85;59.76
6393;BME280;3229;42.674;23.282;2022-07-09T08:46:39;94620.66;;;26.89;59.73
6393;BME280;3229;42.674;23.282;2022-07-09T08:49:07;94615.34;;;26.84;59.57
6393;BME280;3229;42.674;23.282;2022-07-09T08:51:35;94614.47;;;26.79;59.48
6393;BME280;3229;42.674;23.282;2022-07-09T08:54:02;94622.81;;;26.75;58.86
6393;BME280;3229;42.674;23.282;2022-07-09T08:56:29;94621.50;;;26.73;59.23
6393;BME280;3229;42.674;23.282;2022-07-09T08:58:56;94621.63;;;26.66;59.25
6393;BME280;3229;42.674;23.282;2022-07-09T09:01:25;94615.22;;;26.57;59.17
6393;BME280;3229;42.674;23.282;2022-07-09T09:03:54;94623.00;;;26.52;59.31
6393;BME280;3229;42.674;23.282;2022-07-09T09:06:22;94620.78;;;26.44;59.67
6393;BME280;3229;42.674;23.282;2022-07-09T09:08:53;94616.91;;;26.35;59.67
6393;BME280;3229;42.674;23.282;2022-07-09T09:11:23;94610.00;;;26.28;59.54
6393;BME280;3229;42.674;23.282;2022-07-09T09:13:51;94619.84;;;26.21;59.46
6393;BME280;3229;42.674;23.282;2022-07-09T09:16:19;94617.63;;;26.13;60.05
6393;BME280;3229;42.674;23.282;2022-07-09T09:18:48;94625.63;;;26.07;60.02
6393;BME280;3229;42.674;23.282;2022-07-09T09:21:27;94622.13;;;26.01;60.14
6393;BME280;3229;42.674;23.282;2022-07-09T09:23:57;94627.50;;;25.94;60.29
6393;BME280;3229;42.674;23.282;2022-07-09T09:26:26;94606.03;;;25.81;60.16
6393;BME280;3229;42.674;23.282;2022-07-09T09:28:55;94616.84;;;25.84;60.92
6393;BME280;3229;42.674;23.282;2022-07-09T09:31:24;94609.09;;;25.77;61.31
6393;BME280;3229;42.674;23.282;2022-07-09T09:33:52;94616.59;;;25.86;61.43
6393;BME280;3229;42.674;23.282;2022-07-09T09:36:31;94594.75;;;25.80;61.19
6393;BME280;3229;42.674;23.282;2022-07-09T09:39:09;94607.31;;;25.95;61.30
6393;BME280;3229;42.674;23.282;2022-07-09T09:41:36;94613.22;;;26.02;61.17
6393;BME280;3229;42.674;23.282;2022-07-09T09:44:05;94617.75;;;26.07;60.68
6393;BME280;3229;42.674;23.282;2022-07-09T09:46:35;94611.59;;;26.13;60.69
6393;BME280;3229;42.674;23.282;2022-07-09T09:49:04;94612.22;;;26.20;60.95
6393;BME280;3229;42.674;23.282;2022-07-09T09:51:37;94618.25;;;26.20;60.62
6393;BME280;3229;42.674;23.282;2022-07-09T09:54:05;94618.72;;;26.17;60.92
6393;BME280;3229;42.674;23.282;2022-07-09T09:56:32;94618.16;;;26.15;60.62
6393;BME280;3229;42.674;23.282;2022-07-09T09:59:00;94608.31;;;26.06;60.54
6393;BME280;3229;42.674;23.282;2022-07-09T10:01:28;94624.91;;;26.11;60.71
6393;BME280;3229;42.674;23.282;2022-07-09T10:03:55;94625.41;;;26.08;60.81
6393;BME280;3229;42.674;23.282;2022-07-09T10:06:22;94623.25;;;26.05;60.87
6393;BME280;3229;42.674;23.282;2022-07-09T10:08:52;94619.25;;;26.02;60.75
6393;BME280;3229;42.674;23.282;2022-07-09T10:11:19;94625.28;;;26.03;60.82
6393;BME280;3229;42.674;23.282;2022-07-09T10:13:52;94623.69;;;26.02;60.91
6393;BME280;3229;42.674;23.282;2022-07-09T10:16:35;94619.16;;;25.97;61.14
6393;BME280;3229;42.674;23.282;2022-07-09T10:19:02;94617.78;;;25.95;60.98
6393;BME280;3229;42.674;23.282;2022-07-09T10:21:37;94620.91;;;25.92;60.87
6393;BME280;3229;42.674;23.282;2022-07-09T10:24:06;94623.44;;;25.87;61.08
6393;BME280;3229;42.674;23.282;2022-07-09T10:26:39;94623.31;;;25.82;61.06
6393;BME280;3229;42.674;23.282;2022-07-09T10:29:21;94604.59;;;25.61;61.23
6393;BME280;3229;42.674;23.282;2022-07-09T10:31:48;94630.97;;;25.71;61.40
6393;BME280;3229;42.674;23.282;2022-07-09T10:34:56;94627.09;;;25.74;61.45
6393;BME280;3229;42.674;23.282;2022-07-09T10:37:35;94634.28;;;25.79;61.11
6393;BME280;3229;42.674;23.282;2022-07-09T10:40:12;94637.25;;;25.82;61.37
6393;BME280;3229;42.674;23.282;2022-07-09T10:42:40;94633.44;;;25.90;61.03
6393;BME280;3229;42.674;23.282;2022-07-09T10:45:22;94632.44;;;25.91;60.70
6393;BME280;3229;42.674;23.282;2022-07-09T10:47:52;94634.56;;;25.94;61.04
6393;BME280;3229;42.674;23.282;2022-07-09T10:50:19;94630.34;;;25.93;60.53
6393;BME280;3229;42.674;23.282;2022-07-09T10:52:46;94635.94;;;25.96;60.61
6393;BME280;3229;42.674;23.282;2022-07-09T10:55:17;94639.34;;;25.97;60.75
6393;BME280;3229;42.674;23.282;2022-07-09T10:57:44;94642.28;;;26.00;59.89
6393;BME280;3229;42.674;23.282;2022-07-09T11:00:14;94648.66;;;26.05;60.04
6393;BME280;3229;42.674;23.282;2022-07-09T11:02:53;94642.13;;;26.07;59.88
6393;BME280;3229;42.674;23.282;2022-07-09T11:05:20;94637.13;;;26.06;59.72
6393;BME280;3229;42.674;23.282;2022-07-09T11:07:58;94637.78;;;26.13;59.64
6393;BME280;3229;42.674;23.282;2022-07-09T11:10:27;94641.53;;;26.17;59.28
6393;BME280;3229;42.674;23.282;2022-07-09T11:12:54;94649.47;;;26.22;59.14
6393;BME280;3229;42.674;23.282;2022-07-09T11:15:21;94644.00;;;26.23;59.45
6393;BME280;3229;42.674;23.282;2022-07-09T11:17:55;94630.88;;;26.23;58.98
6393;BME280;3229;42.674;23.282;2022-07-09T11:20:22;94639.63;;;26.29;58.73
6393;BME280;3229;42.674;23.282;2022-07-09T11:22:49;94643.63;;;26.32;58.72
6393;BME280;3229;42.674;23.282;2022-07-09T11:25:16;94644.88;;;26.29;58.74
6393;BME280;3229;42.674;23.282;2022-07-09T11:27:45;94643.84;;;26.30;58.58
6393;BME280;3229;42.674;23.282;2022-07-09T11:30:13;94633.75;;;26.22;58.38
6393;BME280;3229;42.674;23.282;2022-07-09T11:32:41;94637.97;;;26.23;58.55
6393;BME280;3229;42.674;23.282;2022-07-09T11:35:08;94649.31;;;26.28;58.16
6393;BME280;3229;42.674;23.282;2022-07-09T11:37:36;94642.50;;;26.27;58.42
6393;BME280;3229;42.674;23.282;2022-07-09T11:40:04;94644.72;;;26.36;57.86
6393;BME280;3229;42.674;23.282;2022-07-09T11:42:31;94641.63;;;26.39;57.80
6393;BME280;3229;42.674;23.282;2022-07-09T11:45:00;94644.91;;;26.46;57.95
6393;BME280;3229;42.674;23.282;2022-07-09T11:47:34;94647.88;;;26.49;57.96
6393;BME280;3229;42.674;23.282;2022-07-09T11:50:07;94640.13;;;26.43;58.12
6393;BME280;3229;42.674;23.282;2022-07-09T11:52:35;94631.34;;;26.49;57.62
6393;BME280;3229;42.674;23.282;2022-07-09T11:55:04;94620.53;;;26.45;57.65
6393;BME280;3229;42.674;23.282;2022-07-09T11:57:33;94638.03;;;26.57;57.42
6393;BME280;3229;42.674;23.282;2022-07-09T12:00:02;94641.19;;;26.59;57.30
6393;BME280;3229;42.674;23.282;2022-07-09T12:02:31;94644.59;;;26.59;57.40
6393;BME280;3229;42.674;23.282;2022-07-09T12:04:58;94631.59;;;26.64;57.24
6393;BME280;3229;42.674;23.282;2022-07-09T12:07:26;94628.72;;;26.66;57.06
6393;BME280;3229;42.674;23.282;2022-07-09T12:10:00;94628.53;;;26.72;57.09
6393;BME280;3229;42.674;23.282;2022-07-09T12:12:28;94616.13;;;26.68;57.04
6393;BME280;3229;42.674;23.282;2022-07-09T12:14:54;94635.00;;;26.82;56.97
6393;BME280;3229;42.674;23.282;2022-07-09T12:17:24;94625.28;;;26.82;56.85
6393;BME280;3229;42.674;23.282;2022-07-09T12:19:52;94631.72;;;26.91;56.41
6393;BME280;3229;42.674;23.282;2022-07-09T12:22:19;94634.72;;;27.00;56.16
6393;BME280;3229;42.674;23.282;2022-07-09T12:24:46;94630.91;;;27.08;56.38
6393;BME280;3229;42.674;23.282;2022-07-09T12:27:13;94629.69;;;27.15;56.41
6393;BME280;3229;42.674;23.282;2022-07-09T12:29:40;94612.69;;;27.18;56.56
6393;BME280;3229;42.674;23.282;2022-07-09T12:32:07;94629.19;;;27.35;56.11
6393;BME280;3229;42.674;23.282;2022-07-09T12:34:36;94630.59;;;27.43;55.81
6393;BME280;3229;42.674;23.282;2022-07-09T12:37:03;94632.00;;;27.50;55.53
6393;BME280;3229;42.674;23.282;2022-07-09T12:39:30;94626.03;;;27.55;55.50
6393;BME280;3229;42.674;23.282;2022-07-09T12:41:59;94628.94;;;27.59;55.19
6393;BME280;3229;42.674;23.282;2022-07-09T12:44:26;94625.34;;;27.65;54.85
6393;BME280;3229;42.674;23.282;2022-07-09T12:46:53;94629.84;;;27.69;54.84
6393;BME280;3229;42.674;23.282;2022-07-09T12:49:21;94614.03;;;27.64;54.74
6393;BME280;3229;42.674;23.282;2022-07-09T12:51:49;94607.00;;;27.70;55.05
6393;BME280;3229;42.674;23.282;2022-07-09T12:54:16;94620.56;;;27.84;54.56
6393;BME280;3229;42.674;23.282;2022-07-09T12:56:43;94613.47;;;27.84;54.29
6393;BME280;3229;42.674;23.282;2022-07-09T12:59:10;94617.44;;;27.87;54.35
6393;BME280;3229;42.674;23.282;2022-07-09T13:01:36;94616.88;;;27.85;54.26
6393;BME280;3229;42.674;23.282;2022-07-09T13:04:03;94615.00;;;27.80;53.95
6393;BME280;3229;42.674;23.282;2022-07-09T13:06:30;94616.53;;;27.76;53.89
6393;BME280;3229;42.674;23.282;2022-07-09T13:09:03;94602.22;;;27.67;54.09
6393;BME280;3229;42.674;23.282;2022-07-09T13:11:31;94597.91;;;27.56;54.16
6393;BME280;3229;42.674;23.282;2022-07-09T13:13:58;94610.53;;;27.59;53.78